createdAt,value
2022-10-15T00:01:09.833Z,14.83
2022-10-15T00:03:38.605Z,15.21
2022-10-15T00:06:07.339Z,15.06
2022-10-15T00:08:33.954Z,15.17
2022-10-15T00:11:10.092Z,15.34
2022-10-15T00:13:37.127Z,14.16
2022-10-15T00:16:04.697Z,14.35
2022-10-15T00:18:31.282Z,14.49
2022-10-15T00:20:57.845Z,14.55
2022-10-15T00:23:24.486Z,14.58
2022-10-15T00:25:51.036Z,14.34
2022-10-15T00:28:17.767Z,14.56
2022-10-15T00:30:44.349Z,14.69
2022-10-15T00:33:10.904Z,14.58
2022-10-15T00:35:37.493Z,14.65
2022-10-15T00:38:04.268Z,14.58
2022-10-15T00:40:30.882Z,14.38
2022-10-15T00:42:57.535Z,14.44
2022-10-15T00:45:24.131Z,14.67
2022-10-15T00:47:53.038Z,14.92
2022-10-15T00:50:25.976Z,14.91
2022-10-15T00:53:10.003Z,14.41
2022-10-15T00:55:42.727Z,14.54
2022-10-15T01:00:44.845Z,14.90
2022-10-15T01:03:12.964Z,14.99
2022-10-15T01:05:40.845Z,14.86
2022-10-15T01:08:07.455Z,14.90
2022-10-15T01:10:48.243Z,14.79
2022-10-15T01:13:54.862Z,14.85
2022-10-15T01:16:35.970Z,14.53
2022-10-15T01:19:17.365Z,14.80
2022-10-15T01:21:54.472Z,14.92
2022-10-15T01:24:27.005Z,14.90
2022-10-15T01:27:02.907Z,14.81
2022-10-15T01:29:49.403Z,15.09
2022-10-15T01:32:47.368Z,15.05
2022-10-15T01:35:30.635Z,15.10
2022-10-15T01:38:17.185Z,15.09
2022-10-15T01:40:58.705Z,15.17
2022-10-15T01:43:51.146Z,15.15
2022-10-15T01:47:13.258Z,15.08
2022-10-15T01:49:45.275Z,15.04
2022-10-15T01:52:19.647Z,15.25
2022-10-15T01:54:49.217Z,15.01
2022-10-15T01:57:18.309Z,15.11
2022-10-15T01:59:45.457Z,15.12
2022-10-15T02:02:12.271Z,15.07
2022-10-15T02:04:38.966Z,14.89
2022-10-15T02:07:13.839Z,15.23
2022-10-15T02:09:47.915Z,14.77
2022-10-15T02:12:23.893Z,14.69
2022-10-15T02:14:55.918Z,14.84
2022-10-15T02:17:35.086Z,14.84
2022-10-15T02:20:12.492Z,14.46
2022-10-15T02:22:54.711Z,14.77
2022-10-15T02:25:24.611Z,14.96
2022-10-15T02:27:54.037Z,14.79
2022-10-15T02:30:21.172Z,14.93
2022-10-15T02:32:56.760Z,15.13
2022-10-15T02:35:24.532Z,15.29
2022-10-15T02:37:54.562Z,15.08
2022-10-15T02:40:24.996Z,15.23
2022-10-15T02:42:52.344Z,14.77
2022-10-15T02:45:20.226Z,14.46
2022-10-15T02:47:46.962Z,14.53
2022-10-15T02:50:13.627Z,14.43
2022-10-15T02:52:40.229Z,14.91
2022-10-15T02:55:07.127Z,14.65
2022-10-15T02:57:33.738Z,14.94
2022-10-15T03:00:00.324Z,14.42
2022-10-15T03:02:26.918Z,14.30
2022-10-15T03:04:53.508Z,14.20
2022-10-15T03:07:20.105Z,14.27
2022-10-15T03:09:46.811Z,14.29
2022-10-15T03:12:13.366Z,14.88
2022-10-15T03:14:39.918Z,15.04
2022-10-15T03:17:06.539Z,15.13
2022-10-15T03:19:33.098Z,14.89
2022-10-15T03:21:59.699Z,15.10
2022-10-15T03:24:26.277Z,15.39
2022-10-15T03:26:52.858Z,14.95
2022-10-15T03:29:19.417Z,14.76
2022-10-15T03:31:46.187Z,14.76
2022-10-15T03:34:12.731Z,14.47
2022-10-15T03:36:39.296Z,14.78
2022-10-15T03:39:06.374Z,15.10
2022-10-15T03:41:33.014Z,14.91
2022-10-15T03:44:03.949Z,14.85
2022-10-15T03:46:30.625Z,14.91
2022-10-15T03:48:57.364Z,14.70
2022-10-15T03:51:25.688Z,13.55
2022-10-15T03:53:54.674Z,14.42
2022-10-15T03:56:21.478Z,14.86
2022-10-15T03:58:48.045Z,14.55
2022-10-15T04:01:17.755Z,14.74
2022-10-15T04:03:45.277Z,14.14
2022-10-15T04:06:11.971Z,14.37
2022-10-15T04:08:38.656Z,14.49
2022-10-15T04:11:05.239Z,14.01
2022-10-15T04:13:31.897Z,14.25
2022-10-15T04:15:58.466Z,14.60
2022-10-15T04:18:25.146Z,14.58
2022-10-15T04:20:51.772Z,14.88
2022-10-15T04:23:18.408Z,14.58
2022-10-15T04:25:46.179Z,14.77
2022-10-15T04:28:12.791Z,14.25
2022-10-15T04:30:39.402Z,14.56
2022-10-15T04:33:06.001Z,14.74
2022-10-15T04:35:32.652Z,14.98
2022-10-15T04:37:59.715Z,14.55
2022-10-15T04:40:26.504Z,14.37
2022-10-15T04:42:53.105Z,14.46
2022-10-15T04:45:19.906Z,13.83
2022-10-15T04:47:46.526Z,14.43
2022-10-15T04:50:13.208Z,14.41
2022-10-15T04:52:40.463Z,14.64
2022-10-15T04:55:07.547Z,14.71
2022-10-15T04:57:34.299Z,14.64
2022-10-15T05:00:00.884Z,14.58
2022-10-15T05:02:28.095Z,14.01
2022-10-15T05:04:54.758Z,14.38
2022-10-15T05:07:21.638Z,14.42
2022-10-15T05:09:48.553Z,14.35
2022-10-15T05:12:15.119Z,14.52
2022-10-15T05:14:41.989Z,14.90
2022-10-15T05:17:08.581Z,14.99
2022-10-15T05:19:35.175Z,14.77
2022-10-15T05:22:01.981Z,14.17
2022-10-15T05:24:28.577Z,14.06
2022-10-15T05:26:55.151Z,14.29
2022-10-15T05:29:21.810Z,14.45
2022-10-15T05:31:51.001Z,14.68
2022-10-15T05:34:17.636Z,14.65
2022-10-15T05:36:44.216Z,14.43
2022-10-15T05:39:12.271Z,14.70
2022-10-15T05:41:38.998Z,14.41
2022-10-15T05:44:05.659Z,14.78
2022-10-15T05:46:32.323Z,15.02
2022-10-15T05:48:59.149Z,14.34
2022-10-15T05:51:27.078Z,14.62
2022-10-15T05:53:57.944Z,14.83
2022-10-15T05:56:25.923Z,14.80
2022-10-15T05:58:52.668Z,14.60
2022-10-15T06:01:19.650Z,14.64
2022-10-15T06:03:46.582Z,15.07
2022-10-15T06:06:18.405Z,14.73
2022-10-15T06:08:45.571Z,14.11
2022-10-15T06:11:12.306Z,14.27
2022-10-15T06:13:40.618Z,13.94
2022-10-15T06:16:08.023Z,13.84
2022-10-15T06:18:35.380Z,13.99
2022-10-15T06:21:02.038Z,13.93
2022-10-15T06:23:28.895Z,14.59
2022-10-15T06:25:55.505Z,14.78
2022-10-15T06:28:22.632Z,15.03
2022-10-15T06:30:49.220Z,14.95
2022-10-15T06:33:17.199Z,15.05
2022-10-15T06:35:44.400Z,15.41
2022-10-15T06:38:11.772Z,15.05
2022-10-15T06:40:39.428Z,14.87
2022-10-15T06:43:10.586Z,14.61
2022-10-15T06:45:39.660Z,14.70
2022-10-15T06:48:07.682Z,15.08
2022-10-15T06:50:36.644Z,14.61
2022-10-15T06:53:06.834Z,15.16
2022-10-15T06:55:34.183Z,14.87
2022-10-15T06:58:01.056Z,14.75
2022-10-15T07:00:27.970Z,14.82
2022-10-15T07:02:54.696Z,14.69
2022-10-15T07:05:21.921Z,14.88
2022-10-15T07:07:55.489Z,15.44
2022-10-15T07:10:22.784Z,15.23
2022-10-15T07:12:49.600Z,15.85
2022-10-15T07:15:16.803Z,15.89
2022-10-15T07:17:48.160Z,15.49
2022-10-15T07:20:17.761Z,15.56
2022-10-15T07:22:46.904Z,15.89
2022-10-15T07:25:13.506Z,15.69
2022-10-15T07:27:40.887Z,15.55
2022-10-15T07:30:08.565Z,15.22
2022-10-15T07:32:35.728Z,15.13
2022-10-15T07:35:02.522Z,15.45
2022-10-15T07:37:29.289Z,15.20
2022-10-15T07:39:56.311Z,15.66
2022-10-15T07:42:22.913Z,15.89
2022-10-15T07:44:49.721Z,15.90
2022-10-15T07:47:16.424Z,15.92
2022-10-15T07:49:43.292Z,15.76
2022-10-15T07:52:10.253Z,15.19
2022-10-15T07:54:37.147Z,15.15
2022-10-15T07:57:04.037Z,14.80
2022-10-15T07:59:30.682Z,15.36
2022-10-15T08:01:57.287Z,15.79
2022-10-15T08:04:23.870Z,15.29
2022-10-15T08:06:50.510Z,15.20
2022-10-15T08:09:17.675Z,14.73
2022-10-15T08:11:44.255Z,14.35
2022-10-15T08:14:10.834Z,14.82
2022-10-15T08:16:37.423Z,14.45
2022-10-15T08:19:04.858Z,15.05
2022-10-15T08:21:31.449Z,14.94
2022-10-15T08:23:58.075Z,14.99
2022-10-15T08:26:26.598Z,15.10
2022-10-15T08:28:53.348Z,15.81
2022-10-15T08:31:19.995Z,15.64
2022-10-15T08:33:46.549Z,15.07
2022-10-15T08:36:13.162Z,14.82
2022-10-15T08:38:39.753Z,15.07
2022-10-15T08:41:19.883Z,15.54
2022-10-15T08:43:47.466Z,15.02
2022-10-15T08:46:22.589Z,15.21
2022-10-15T08:48:53.969Z,14.93
2022-10-15T08:51:23.173Z,15.20
2022-10-15T08:53:58.171Z,16.14
2022-10-15T08:56:33.726Z,16.17
2022-10-15T08:59:18.138Z,15.81
2022-10-15T09:01:55.627Z,15.94
2022-10-15T09:04:37.838Z,15.86
2022-10-15T09:07:19.521Z,15.68
2022-10-15T09:09:50.497Z,15.61
2022-10-15T09:12:35.500Z,15.86
2022-10-15T09:15:05.375Z,15.49
2022-10-15T09:17:34.025Z,15.42
2022-10-15T09:20:05.868Z,15.66
2022-10-15T09:22:35.154Z,15.99
2022-10-15T09:25:16.377Z,16.48
2022-10-15T09:27:45.254Z,16.58
2022-10-15T09:30:37.034Z,16.85
2022-10-15T09:33:06.578Z,16.68
2022-10-15T09:35:45.327Z,16.32
2022-10-15T09:38:46.033Z,16.47
2022-10-15T09:41:37.824Z,16.30
2022-10-15T09:44:11.017Z,16.49
2022-10-15T09:46:46.886Z,16.65
2022-10-15T09:49:19.549Z,16.97
2022-10-15T09:51:51.410Z,17.38
2022-10-15T09:54:30.414Z,17.10
2022-10-15T09:56:57.751Z,17.66
2022-10-15T09:59:25.691Z,17.23
2022-10-15T10:02:02.639Z,16.21
2022-10-15T10:04:32.437Z,16.80
2022-10-15T10:07:02.999Z,16.81
2022-10-15T10:09:47.526Z,16.77
2022-10-15T10:12:23.582Z,16.94
2022-10-15T10:14:56.867Z,16.97
2022-10-15T10:17:25.469Z,16.98
2022-10-15T10:20:10.204Z,17.00
2022-10-15T10:22:50.425Z,16.99
2022-10-15T10:25:27.641Z,16.84
2022-10-15T10:27:56.830Z,17.59
2022-10-15T10:30:24.002Z,17.24
2022-10-15T10:32:58.615Z,17.04
2022-10-15T10:35:44.326Z,17.38
2022-10-15T10:38:28.799Z,17.79
2022-10-15T10:41:00.466Z,18.00
2022-10-15T10:43:29.864Z,17.04
2022-10-15T10:46:02.585Z,17.46
2022-10-15T10:48:39.876Z,17.43
2022-10-15T10:51:22.583Z,18.07
2022-10-15T10:54:06.214Z,17.73
2022-10-15T10:56:37.784Z,17.74
2022-10-15T10:59:40.903Z,18.16
2022-10-15T11:02:12.278Z,18.32
2022-10-15T11:04:40.208Z,18.47
2022-10-15T11:07:20.999Z,18.69
2022-10-15T11:09:58.369Z,18.37
2022-10-15T11:12:45.927Z,18.63
2022-10-15T11:15:33.558Z,18.25
2022-10-15T11:18:05.520Z,18.08
2022-10-15T11:20:57.759Z,17.86
2022-10-15T11:23:28.891Z,18.12
2022-10-15T11:26:23.581Z,18.37
2022-10-15T11:29:03.827Z,18.56
2022-10-15T11:32:02.738Z,18.79
2022-10-15T11:35:01.845Z,18.41
2022-10-15T11:37:43.463Z,18.71
2022-10-15T11:40:25.918Z,18.43
2022-10-15T11:43:03.085Z,18.74
2022-10-15T11:45:48.761Z,18.69
2022-10-15T11:48:33.901Z,18.70
2022-10-15T11:51:29.620Z,18.36
2022-10-15T11:54:33.056Z,18.47
2022-10-15T11:57:02.380Z,18.51
2022-10-15T11:59:28.886Z,19.10
2022-10-15T12:02:03.871Z,19.13
2022-10-15T12:04:39.585Z,19.06
2022-10-15T12:07:15.976Z,19.30
2022-10-15T12:09:49.014Z,19.22
2022-10-15T12:12:37.626Z,18.71
2022-10-15T12:15:30.716Z,18.66
2022-10-15T12:18:34.671Z,18.42
2022-10-15T12:21:01.751Z,18.66
2022-10-15T12:23:37.145Z,18.44
2022-10-15T12:26:23.644Z,18.13
2022-10-15T12:28:53.031Z,18.27
2022-10-15T12:31:20.914Z,17.54
2022-10-15T12:33:52.529Z,17.92
2022-10-15T12:36:19.073Z,17.84
2022-10-15T12:39:28.045Z,17.68
2022-10-15T12:42:29.850Z,17.95
2022-10-15T12:44:59.449Z,17.96
2022-10-15T12:47:54.238Z,17.58
2022-10-15T12:50:26.201Z,17.93
2022-10-15T12:53:27.011Z,17.10
2022-10-15T12:56:23.971Z,17.32
2022-10-15T12:58:55.777Z,17.58
2022-10-15T13:01:22.332Z,18.21
2022-10-15T13:03:49.057Z,17.98
2022-10-15T13:06:21.418Z,18.07
2022-10-15T13:09:06.777Z,18.14
2022-10-15T13:11:42.549Z,18.32
2022-10-15T13:14:11.950Z,18.16
2022-10-15T13:16:48.687Z,17.54
2022-10-15T13:19:46.565Z,17.82
2022-10-15T13:22:25.842Z,17.49
2022-10-15T13:24:54.128Z,17.83
2022-10-15T13:27:32.529Z,18.31
2022-10-15T13:30:05.923Z,18.59
2022-10-15T13:32:37.193Z,18.52
2022-10-15T13:35:11.380Z,18.34
2022-10-15T13:37:40.564Z,17.95
2022-10-15T13:40:08.784Z,18.44
2022-10-15T13:42:35.690Z,18.49
2022-10-15T13:45:17.007Z,17.99
2022-10-15T13:47:54.910Z,18.02
2022-10-15T13:50:28.866Z,18.28
2022-10-15T13:53:05.670Z,18.45
2022-10-15T13:55:36.460Z,18.37
2022-10-15T13:58:09.195Z,18.14
2022-10-15T14:00:37.188Z,18.33
2022-10-15T14:03:24.207Z,18.60
2022-10-15T14:05:53.037Z,18.39
2022-10-15T14:08:21.633Z,18.85
2022-10-15T14:10:49.382Z,17.55
2022-10-15T14:13:16.442Z,17.98
2022-10-15T14:16:00.420Z,18.69
2022-10-15T14:18:36.750Z,18.30
2022-10-15T14:21:09.765Z,18.38
2022-10-15T14:23:36.370Z,18.10
2022-10-15T14:26:04.270Z,18.08
2022-10-15T14:28:34.163Z,17.88
2022-10-15T14:31:02.210Z,17.27
2022-10-15T14:33:42.800Z,17.35
2022-10-15T14:36:19.770Z,17.45
2022-10-15T14:38:46.448Z,17.31
2022-10-15T14:41:22.532Z,17.12
2022-10-15T14:44:12.103Z,17.63
2022-10-15T14:46:52.887Z,17.59
2022-10-15T14:49:27.618Z,17.75
2022-10-15T14:52:02.460Z,17.44
2022-10-15T14:54:39.564Z,17.06
2022-10-15T14:57:24.371Z,17.27
2022-10-15T14:59:55.418Z,17.79
2022-10-15T15:02:26.641Z,17.82
2022-10-15T15:05:20.459Z,17.55
2022-10-15T15:07:48.215Z,17.63
2022-10-15T15:10:15.147Z,17.64
2022-10-15T15:12:45.848Z,17.59
2022-10-15T15:15:17.766Z,17.23
2022-10-15T15:17:45.078Z,16.83
2022-10-15T15:20:12.423Z,17.13
2022-10-15T15:22:40.458Z,17.04
2022-10-15T15:25:14.898Z,17.01
2022-10-15T15:27:41.602Z,16.09
2022-10-15T15:30:16.301Z,16.72
2022-10-15T15:32:43.055Z,16.99
2022-10-15T15:35:19.010Z,17.11
2022-10-15T15:37:45.674Z,16.74
2022-10-15T15:40:12.558Z,17.00
2022-10-15T15:42:39.230Z,17.03
2022-10-15T15:45:06.385Z,17.21
2022-10-15T15:47:32.975Z,17.15
2022-10-15T15:49:59.666Z,17.21
2022-10-15T15:52:26.619Z,17.33
2022-10-15T15:54:53.664Z,17.35
2022-10-15T15:57:20.907Z,17.31
2022-10-15T15:59:47.500Z,17.04
2022-10-15T16:02:14.128Z,17.25
2022-10-15T16:04:40.797Z,16.78
2022-10-15T16:07:10.268Z,16.77
2022-10-15T16:09:39.923Z,16.70
2022-10-15T16:12:06.508Z,16.42
2022-10-15T16:14:33.066Z,16.61
2022-10-15T16:16:59.648Z,16.57
2022-10-15T16:19:26.419Z,16.79
2022-10-15T16:21:53.032Z,16.88
2022-10-15T16:24:19.685Z,16.71
2022-10-15T16:26:46.407Z,16.96
2022-10-15T16:29:14.936Z,17.01
2022-10-15T16:31:41.513Z,17.03
2022-10-15T16:34:08.565Z,16.86
2022-10-15T16:36:36.068Z,16.96
2022-10-15T16:39:03.349Z,16.88
2022-10-15T16:41:30.287Z,16.52
2022-10-15T16:43:57.053Z,16.52
2022-10-15T16:46:23.673Z,16.60
2022-10-15T16:48:55.475Z,16.58
2022-10-15T16:51:23.409Z,16.46
2022-10-15T16:53:50.836Z,16.25
2022-10-15T16:56:25.805Z,16.50
2022-10-15T16:58:52.670Z,16.67
2022-10-15T17:01:22.819Z,16.69
2022-10-15T17:03:49.468Z,16.65
2022-10-15T17:06:20.848Z,16.71
2022-10-15T17:08:59.324Z,16.50
2022-10-15T17:11:31.822Z,16.52
2022-10-15T17:14:00.450Z,16.65
2022-10-15T17:16:30.441Z,16.61
2022-10-15T17:18:57.602Z,16.54
2022-10-15T17:21:27.693Z,16.46
2022-10-15T17:23:57.291Z,16.37
2022-10-15T17:26:27.141Z,16.57
2022-10-15T17:28:54.416Z,16.50
2022-10-15T17:31:23.518Z,16.49
2022-10-15T17:33:58.548Z,16.43
2022-10-15T17:36:26.801Z,16.52
2022-10-15T17:38:56.945Z,16.38
2022-10-15T17:41:25.905Z,16.48
2022-10-15T17:43:53.554Z,16.54
2022-10-15T17:46:25.803Z,16.35
2022-10-15T17:48:53.716Z,16.36
2022-10-15T17:51:23.612Z,16.30
2022-10-15T17:53:52.662Z,16.20
2022-10-15T17:56:24.746Z,16.22
2022-10-15T17:58:51.458Z,16.21
2022-10-15T18:01:33.214Z,16.13
2022-10-15T18:04:00.233Z,16.15
2022-10-15T18:06:28.187Z,15.80
2022-10-15T18:08:55.710Z,15.48
2022-10-15T18:11:28.256Z,15.37
2022-10-15T18:13:55.298Z,14.63
2022-10-15T18:16:22.535Z,14.37
2022-10-15T18:18:49.261Z,14.41
2022-10-15T18:21:18.369Z,14.75
2022-10-15T18:23:45.391Z,15.05
2022-10-15T18:26:19.925Z,15.34
2022-10-15T18:28:48.121Z,15.40
2022-10-15T18:31:15.923Z,15.42
2022-10-15T18:33:48.184Z,15.30
2022-10-15T18:36:18.299Z,15.30
2022-10-15T18:38:44.983Z,15.39
2022-10-15T18:41:41.120Z,15.16
2022-10-15T18:44:16.644Z,15.03
2022-10-15T18:46:45.137Z,15.32
2022-10-15T18:49:13.659Z,15.39
2022-10-15T18:51:40.252Z,14.98
2022-10-15T18:54:09.327Z,14.78
2022-10-15T18:56:36.308Z,15.01
2022-10-15T18:59:02.987Z,15.12
2022-10-15T19:01:32.861Z,15.13
2022-10-15T19:04:05.952Z,15.13
2022-10-15T19:06:38.804Z,15.07
2022-10-15T19:09:08.959Z,14.95
2022-10-15T19:11:36.152Z,14.51
2022-10-15T19:14:03.697Z,14.41
2022-10-15T19:16:30.593Z,13.80
2022-10-15T19:18:58.273Z,13.80
2022-10-15T19:21:24.894Z,13.45
2022-10-15T19:23:51.592Z,13.76
2022-10-15T19:26:18.261Z,13.76
2022-10-15T19:28:46.793Z,14.24
2022-10-15T19:31:22.313Z,13.43
2022-10-15T19:33:49.017Z,13.53
2022-10-15T19:36:27.555Z,13.73
2022-10-15T19:38:54.135Z,14.04
2022-10-15T19:41:20.886Z,14.43
2022-10-15T19:43:47.802Z,14.18
2022-10-15T19:46:15.029Z,14.00
2022-10-15T19:48:41.815Z,14.27
2022-10-15T19:51:08.785Z,14.53
2022-10-15T19:53:35.700Z,14.34
2022-10-15T19:56:05.334Z,14.72
2022-10-15T19:58:32.477Z,14.83
2022-10-15T20:00:59.795Z,14.98
2022-10-15T20:03:28.836Z,14.92
2022-10-15T20:05:56.359Z,14.40
2022-10-15T20:08:25.385Z,14.33
2022-10-15T20:10:52.783Z,13.40
2022-10-15T20:13:21.818Z,13.48
2022-10-15T20:15:51.976Z,13.81
2022-10-15T20:18:19.797Z,13.99
2022-10-15T20:20:46.841Z,13.34
2022-10-15T20:23:15.390Z,13.05
2022-10-15T20:25:42.947Z,12.65
2022-10-15T20:28:10.497Z,12.98
2022-10-15T20:30:38.796Z,13.47
2022-10-15T20:33:06.280Z,13.39
2022-10-15T20:35:34.639Z,13.69
2022-10-15T20:38:02.426Z,13.95
2022-10-15T20:40:29.411Z,14.00
2022-10-15T20:42:56.126Z,13.97
2022-10-15T20:45:23.074Z,14.14
2022-10-15T20:47:52.638Z,14.01
2022-10-15T20:50:28.497Z,14.07
2022-10-15T20:52:57.446Z,13.89
2022-10-15T20:55:24.446Z,13.72
2022-10-15T20:57:51.676Z,13.95
2022-10-15T21:00:18.879Z,13.89
2022-10-15T21:02:45.440Z,13.86
2022-10-15T21:05:12.264Z,13.98
2022-10-15T21:07:38.897Z,13.87
2022-10-15T21:10:06.122Z,13.94
2022-10-15T21:12:32.762Z,13.98
2022-10-15T21:14:59.321Z,14.14
2022-10-15T21:17:26.248Z,13.83
2022-10-15T21:19:53.142Z,14.02
2022-10-15T21:22:20.245Z,13.71
2022-10-15T21:24:46.887Z,13.50
2022-10-15T21:27:13.487Z,13.58
2022-10-15T21:29:40.393Z,13.13
2022-10-15T21:32:07.006Z,13.16
2022-10-15T21:34:33.684Z,13.37
2022-10-15T21:37:00.343Z,13.36
2022-10-15T21:39:27.744Z,13.46
2022-10-15T21:41:54.307Z,13.46
2022-10-15T21:44:20.927Z,13.44
2022-10-15T21:46:47.609Z,13.47
2022-10-15T21:49:14.423Z,13.70
2022-10-15T21:51:41.243Z,13.56
2022-10-15T21:54:09.116Z,13.63
2022-10-15T21:56:36.600Z,13.80
2022-10-15T21:59:04.314Z,13.52
2022-10-15T22:01:33.154Z,13.24
2022-10-15T22:04:02.498Z,12.88
2022-10-15T22:06:29.758Z,12.89
2022-10-15T22:08:56.400Z,12.78
2022-10-15T22:13:59.754Z,13.00
2022-10-15T22:16:27.638Z,13.28
2022-10-15T22:18:56.228Z,13.25
2022-10-15T22:21:25.660Z,13.05
2022-10-15T22:24:07.033Z,13.26
2022-10-15T22:26:37.009Z,12.83
2022-10-15T22:29:05.372Z,12.94
2022-10-15T22:31:32.526Z,13.06
2022-10-15T22:33:59.383Z,13.12
2022-10-15T22:36:29.048Z,13.27
2022-10-15T22:39:05.187Z,12.75
2022-10-15T22:41:39.620Z,12.28
2022-10-15T22:44:08.204Z,12.60
2022-10-15T22:46:39.075Z,12.52
2022-10-15T22:49:07.680Z,12.40
2022-10-15T22:51:34.882Z,12.42
2022-10-15T22:54:01.847Z,12.49
2022-10-15T22:56:29.317Z,12.34
2022-10-15T22:58:57.092Z,12.44
2022-10-15T23:01:28.822Z,12.28
2022-10-15T23:03:57.953Z,12.77
2022-10-15T23:06:25.420Z,12.56
2022-10-15T23:08:52.119Z,12.90
2022-10-15T23:11:21.736Z,12.59
2022-10-15T23:13:53.324Z,11.97
2022-10-15T23:16:25.502Z,11.94
2022-10-15T23:18:57.893Z,12.43
2022-10-15T23:21:35.278Z,12.53
2022-10-15T23:24:02.505Z,12.61
2022-10-15T23:29:02.729Z,12.81
2022-10-15T23:31:32.787Z,12.73
2022-10-15T23:34:00.549Z,12.58
2022-10-15T23:36:28.466Z,12.77
2022-10-15T23:38:58.506Z,12.90
2022-10-15T23:41:26.611Z,13.11
2022-10-15T23:43:53.910Z,12.82
2022-10-15T23:46:20.732Z,13.06
2022-10-15T23:48:47.712Z,12.81
2022-10-15T23:51:25.836Z,12.11
2022-10-15T23:53:53.237Z,11.87
2022-10-15T23:56:20.885Z,11.76
2022-10-15T23:58:52.445Z,11.91
